Misawa, Japan
Current Conditions -  °F | °C
As of 9:44 PM on Monday 22 Dec 2014 (Local Time) from RJSA Reporting Station
Blowing Snow Blowing Snow  
Wind Chill:   Ceiling: 500
Heat Index: 23°   Visibility: 0.5mi
Dew Point: 21°   Wind: 24mph
Humidity: 93%   Direction: 270°W
Pressure: 29.62"   Gusts: 45mph
Location:  40.68°N, 141.37°E
Report Text: RJSA 221244Z 27021G39KT 0800 R24/0600V1600U SHSN DRSN FEW002 SCT003 BKN005 M05/M06 Q1003 RMK 1ST002 3ST003 6ST005 A2962
Loading
Personal Weather Stations






























Interactive Weather Map New forecast layout! Learn more

10-Day Weather Forecast

Advertisements
Track Severe Weather on mobile